Altus, Oklahoma
Current Conditions -  °F | °C
As of 2:58 AM on Wednesday 22 Oct 2014 (Local Time) from KLTS Reporting Station
Clear Clear  
Wind Chill: 54°   Ceiling: Unl
Heat Index: 54°   Visibility: 10mi
Dew Point: 50°   Wind: 5mph
Humidity: 87%   Direction: 110°ESE
Pressure: 30.06"   Gusts: NA
Location:  34.64°N, 99.33°W
Report Text: KLTS 220758Z AUTO 11004KT 10SM CLR 12/10 A3006 RMK AO2 SLP170 T01230102 CHINO RWY35L $
Loading
Personal Weather Stations






























Interactive Weather Map
Tropical Storm Tracking
New forecast layout! Learn more

10-Day Weather Forecast

Advertisements
Track Severe Weather on mobile